F/V Moorea — FMIT — position and weather

sailwx.info

Track history (hours):
 
Tides and Currents Weather Stations Pressure Air Temp Water Temp Dewpoint Dewpoint Depression Visibility Wind Speed Wind Dir Waves Ship Positions

F/V Moorea

Last reported at 2017-May-25 05:00 UTC. Time now 2017-May-25 05:12 UTC.
Position N 46°40' W 002°54'.

Length 18 m.

Type: Fishing. MMSI: 228239900.

Date/timePositionNaut miles runAvg speedWind from/ knotsBaromVisibWave heightAir tempDewpointWater temp
2017-May-25 05:00N 46°40' W 002°54'5 9.9
2017-May-25 04:31N 46°45' W 002°51'5 9.9
2017-May-25 04:00N 46°49' W 002°47'5 9.7
2017-May-25 03:27N 46°55' W 002°46'5 9.5
2017-May-25 02:57N 46°59' W 002°43'4 9.5
2017-May-25 02:30N 47°03' W 002°41'5 9.8
2017-May-25 02:00N 47°08' W 002°39'4 8.4
2017-May-25 01:31N 47°12' W 002°37'5 9.0
2017-May-25 01:00N 47°16' W 002°35'3 6.0
2017-May-25 00:26N 47°18' W 002°31'0 0.1
2017-May-25 00:00N 47°18' W 002°31'0 0.0
2017-May-24 23:27N 47°18' W 002°31'1 2.5
2017-May-24 23:00N 47°19' W 002°32'5 8.5
2017-May-24 22:27N 47°15' W 002°36'54 1.9
2017-May-23 18:52N 46°24' W 002°58'1 3.7
2017-May-23 18:30N 46°25' W 002°56'2 1.3
2017-May-23 16:44N 46°27' W 002°57'1 2.9
2017-May-23 16:30N 46°26' W 002°57'1 1.3
2017-May-23 15:39N 46°27' W 002°57'0 0.5
2017-May-23 14:34N 46°27' W 002°58'1 3.5
2017-May-23 14:20N 46°27' W 002°57'2 0.4
2017-May-23 08:23N 46°27' W 002°54'7 3.5
2017-May-23 06:20N 46°34' W 002°55'6 9.8
2017-May-23 05:46N 46°39' W 002°53'4 9.9
2017-May-23 05:24N 46°43' W 002°51'510.0
2017-May-23 04:56N 46°47' W 002°49'410.2
2017-May-23 04:30N 46°51' W 002°47'510.2
2017-May-23 04:00N 46°56' W 002°45'610.3
2017-May-23 03:28N 47°01' W 002°42'510.4
2017-May-23 03:00N 47°06' W 002°40'610.9
2017-May-23 02:30N 47°11' W 002°37'5 9.7
2017-May-23 02:00N 47°16' W 002°35'4 7.2
2017-May-23 01:30N 47°18' W 002°31'0 0.3
2017-May-23 01:01N 47°18' W 002°31'0 0.0
2017-May-23 00:29N 47°18' W 002°31'2 4.3
2017-May-23 00:00N 47°18' W 002°34'5 9.3
2017-May-22 23:30N 47°14' W 002°37'27 9.3
2017-May-22 20:32N 46°48' W 002°50'0 9.7
2017-May-22 20:30N 46°48' W 002°51'8 9.0
2017-May-22 19:36N 46°41' W 002°55'8 5.5
2017-May-22 18:13N 46°33' W 002°57'1 3.4
2017-May-22 17:51N 46°32' W 002°57'1 3.7
2017-May-22 17:27N 46°30' W 002°57'3 3.6
2017-May-22 16:38N 46°28' W 002°56'2 3.6
2017-May-22 16:14N 46°26' W 002°55'1 0.2
2017-May-22 11:06N 46°27' W 002°54'24 1.1
2017-May-21 13:20N 46°45' W 003°19'12 2.6
2017-May-21 08:50N 46°52' W 003°32'1 3.0
2017-May-21 08:24N 46°53' W 003°32'2 3.7
2017-May-21 07:50N 46°54' W 003°29'1 3.7
2017-May-21 07:28N 46°54' W 003°27'9 7.3
2017-May-21 06:17N 46°58' W 003°16'3 9.3
2017-May-21 06:00N 46°60' W 003°13'5 9.4
2017-May-21 05:27N 47°02' W 003°06'5 9.4
2017-May-21 04:58N 47°04' W 003°00'5 9.9
2017-May-21 04:30N 47°07' W 002°54'6 9.7
2017-May-21 03:51N 47°10' W 002°46'3 8.9
2017-May-21 03:30N 47°12' W 002°43'510.1
2017-May-21 03:00N 47°15' W 002°37'4 9.0
2017-May-21 02:30N 47°19' W 002°33'2 3.4
2017-May-21 01:56N 47°18' W 002°31'0 0.0
2017-May-21 01:30N 47°18' W 002°31'0 0.0
2017-May-21 00:58N 47°18' W 002°31'0 0.1
2017-May-21 00:30N 47°18' W 002°31'4 7.0
2017-May-20 23:54N 47°16' W 002°37'3 8.0
2017-May-20 23:30N 47°14' W 002°40'4 8.7
2017-May-20 23:00N 47°12' W 002°46'10 0.5
2017-May-20 02:48N 47°06' W 002°58'310.1
2017-May-20 02:30N 47°08' W 002°54'5 9.1
2017-May-20 01:54N 47°10' W 002°47'4 9.1
2017-May-20 01:30N 47°12' W 002°43'510.2
2017-May-20 01:00N 47°16' W 002°37'4 9.0
2017-May-20 00:30N 47°19' W 002°32'1 2.0
2017-May-20 00:00N 47°18' W 002°31'4 7.3
2017-May-19 23:30N 47°16' W 002°36'4 8.6
2017-May-19 23:00N 47°14' W 002°41'5 9.7
2017-May-19 22:30N 47°11' W 002°47'5 0.2
2017-May-18 21:00N 47°07' W 002°44'4 8.5
2017-May-18 20:30N 47°11' W 002°40'5 9.8
2017-May-18 20:00N 47°15' W 002°37'5 9.2
2017-May-18 19:30N 47°19' W 002°32'1 0.1
2017-May-18 00:28N 47°18' W 002°31'0 0.0
2017-May-17 23:56N 47°18' W 002°31'4 6.3
2017-May-17 23:18N 47°16' W 002°36'3 9.5
2017-May-17 23:00N 47°14' W 002°38'39 2.6
2017-May-17 07:44N 46°38' W 003°02'2 3.7
2017-May-17 07:17N 46°36' W 003°02'1 3.7
2017-May-17 06:57N 46°35' W 003°01'2 3.4
2017-May-17 06:30N 46°34' W 003°00'3 3.9
2017-May-17 05:36N 46°37' W 003°01'0 3.7
2017-May-17 05:30N 46°38' W 003°01'2 3.9
2017-May-17 04:56N 46°40' W 003°01'2 3.9
2017-May-17 04:27N 46°42' W 003°02'2 3.9
2017-May-17 03:56N 46°44' W 003°02'4 7.9
2017-May-17 03:26N 46°47' W 002°59'4 9.1
2017-May-17 03:00N 46°51' W 002°57'5 9.0
2017-May-17 02:29N 46°55' W 002°53'4 9.2
2017-May-17 02:00N 46°59' W 002°50'5 9.4
2017-May-17 01:30N 47°03' W 002°47'5 9.4
2017-May-17 01:00N 47°07' W 002°44'5 9.6
2017-May-17 00:31N 47°11' W 002°40'510.0
2017-May-17 00:00N 47°16' W 002°37'5 9.1
2017-May-16 23:30N 47°19' W 002°32'1 2.3
2017-May-16 22:59N 47°18' W 002°31'1 3.0
2017-May-16 22:30N 47°18' W 002°33'4 8.9
2017-May-16 22:00N 47°15' W 002°36'5 9.1
2017-May-16 21:30N 47°11' W 002°39'5 9.0
2017-May-16 21:00N 47°07' W 002°42'6 9.3
2017-May-16 20:20N 47°01' W 002°46'3 9.4
2017-May-16 20:00N 46°58' W 002°49'6 9.4
2017-May-16 19:20N 46°53' W 002°53'3 9.4
2017-May-16 18:59N 46°50' W 002°55'7 9.2
2017-May-16 18:16N 46°44' W 002°60'3 7.3
2017-May-16 17:54N 46°42' W 003°01'3 3.8
2017-May-16 17:02N 46°38' W 003°01'0 3.8
2017-May-16 16:58N 46°38' W 003°01'2 3.9
2017-May-16 16:23N 46°36' W 003°00'3 2.0
2017-May-16 15:00N 46°38' W 003°02'2 0.8
2017-May-16 12:48N 46°37' W 003°02'6 0.7
2017-May-16 03:45N 46°43' W 003°02'1 3.6
2017-May-16 03:30N 46°42' W 003°01'1 0.7
2017-May-16 01:57N 46°43' W 003°02'6 4.0
2017-May-16 00:21N 46°37' W 002°59'2 3.9
2017-May-15 23:58N 46°36' W 002°58'3 4.1
2017-May-15 23:10N 46°33' W 002°56'1 4.2
2017-May-15 22:58N 46°33' W 002°55'7 3.8
2017-May-15 21:12N 46°39' W 003°00'1 4.0
2017-May-15 21:00N 46°39' W 003°01'4 4.2
2017-May-15 20:02N 46°43' W 003°04'8 3.5
2017-May-15 17:53N 46°35' W 003°01'5 3.8
2017-May-15 16:30N 46°30' W 003°01'2 3.6
2017-May-15 16:00N 46°28' W 002°60'2 3.8
2017-May-15 15:29N 46°27' W 002°58'3 1.9
2017-May-15 13:54N 46°27' W 003°02'19 3.1
2017-May-15 07:53N 46°44' W 002°50'2 4.0
2017-May-15 07:29N 46°45' W 002°51'2 5.0
2017-May-15 07:00N 46°47' W 002°49'5 9.6
2017-May-15 06:30N 46°52' W 002°47'5 9.5
2017-May-15 06:00N 46°56' W 002°45'5 9.4
2017-May-15 05:31N 47°01' W 002°43'5 9.4
2017-May-15 05:01N 47°05' W 002°41'  
Track history (hours):
 
Tides and Currents Weather Stations Pressure Air Temp Water Temp Dewpoint Dewpoint Depression Visibility Wind Speed Wind Dir Waves Ship Positions

F/V Moorea

Last reported at 2017-May-25 05:00 UTC. Time now 2017-May-25 05:12 UTC.
Position N 46°40' W 002°54'.

Length 18 m.

Type: Fishing. MMSI: 228239900.

Date/timePositionNaut miles runAvg speedWind from/ knotsBaromVisibWave heightAir tempDewpointWater temp
2017-May-25 05:00N 46°40' W 002°54'5 9.9
2017-May-25 04:31N 46°45' W 002°51'5 9.9
2017-May-25 04:00N 46°49' W 002°47'5 9.7
2017-May-25 03:27N 46°55' W 002°46'5 9.5
2017-May-25 02:57N 46°59' W 002°43'4 9.5
2017-May-25 02:30N 47°03' W 002°41'5 9.8
2017-May-25 02:00N 47°08' W 002°39'4 8.4
2017-May-25 01:31N 47°12' W 002°37'5 9.0
2017-May-25 01:00N 47°16' W 002°35'3 6.0
2017-May-25 00:26N 47°18' W 002°31'0 0.1
2017-May-25 00:00N 47°18' W 002°31'0 0.0
2017-May-24 23:27N 47°18' W 002°31'1 2.5
2017-May-24 23:00N 47°19' W 002°32'5 8.5
2017-May-24 22:27N 47°15' W 002°36'54 1.9
2017-May-23 18:52N 46°24' W 002°58'1 3.7
2017-May-23 18:30N 46°25' W 002°56'2 1.3
2017-May-23 16:44N 46°27' W 002°57'1 2.9
2017-May-23 16:30N 46°26' W 002°57'1 1.3
2017-May-23 15:39N 46°27' W 002°57'0 0.5
2017-May-23 14:34N 46°27' W 002°58'1 3.5
2017-May-23 14:20N 46°27' W 002°57'2 0.4
2017-May-23 08:23N 46°27' W 002°54'7 3.5
2017-May-23 06:20N 46°34' W 002°55'6 9.8
2017-May-23 05:46N 46°39' W 002°53'4 9.9
2017-May-23 05:24N 46°43' W 002°51'510.0
2017-May-23 04:56N 46°47' W 002°49'410.2
2017-May-23 04:30N 46°51' W 002°47'510.2
2017-May-23 04:00N 46°56' W 002°45'610.3
2017-May-23 03:28N 47°01' W 002°42'510.4
2017-May-23 03:00N 47°06' W 002°40'610.9
2017-May-23 02:30N 47°11' W 002°37'5 9.7
2017-May-23 02:00N 47°16' W 002°35'4 7.2
2017-May-23 01:30N 47°18' W 002°31'0 0.3
2017-May-23 01:01N 47°18' W 002°31'0 0.0
2017-May-23 00:29N 47°18' W 002°31'2 4.3
2017-May-23 00:00N 47°18' W 002°34'5 9.3
2017-May-22 23:30N 47°14' W 002°37'27 9.3
2017-May-22 20:32N 46°48' W 002°50'0 9.7
2017-May-22 20:30N 46°48' W 002°51'8 9.0
2017-May-22 19:36N 46°41' W 002°55'8 5.5
2017-May-22 18:13N 46°33' W 002°57'1 3.4
2017-May-22 17:51N 46°32' W 002°57'1 3.7
2017-May-22 17:27N 46°30' W 002°57'3 3.6
2017-May-22 16:38N 46°28' W 002°56'2 3.6
2017-May-22 16:14N 46°26' W 002°55'1 0.2
2017-May-22 11:06N 46°27' W 002°54'24 1.1
2017-May-21 13:20N 46°45' W 003°19'12 2.6
2017-May-21 08:50N 46°52' W 003°32'1 3.0
2017-May-21 08:24N 46°53' W 003°32'2 3.7
2017-May-21 07:50N 46°54' W 003°29'1 3.7
2017-May-21 07:28N 46°54' W 003°27'9 7.3
2017-May-21 06:17N 46°58' W 003°16'3 9.3
2017-May-21 06:00N 46°60' W 003°13'5 9.4
2017-May-21 05:27N 47°02' W 003°06'5 9.4
2017-May-21 04:58N 47°04' W 003°00'5 9.9
2017-May-21 04:30N 47°07' W 002°54'6 9.7
2017-May-21 03:51N 47°10' W 002°46'3 8.9
2017-May-21 03:30N 47°12' W 002°43'510.1
2017-May-21 03:00N 47°15' W 002°37'4 9.0
2017-May-21 02:30N 47°19' W 002°33'2 3.4
2017-May-21 01:56N 47°18' W 002°31'0 0.0
2017-May-21 01:30N 47°18' W 002°31'0 0.0
2017-May-21 00:58N 47°18' W 002°31'0 0.1
2017-May-21 00:30N 47°18' W 002°31'4 7.0
2017-May-20 23:54N 47°16' W 002°37'3 8.0
2017-May-20 23:30N 47°14' W 002°40'4 8.7
2017-May-20 23:00N 47°12' W 002°46'10 0.5
2017-May-20 02:48N 47°06' W 002°58'310.1
2017-May-20 02:30N 47°08' W 002°54'5 9.1
2017-May-20 01:54N 47°10' W 002°47'4 9.1
2017-May-20 01:30N 47°12' W 002°43'510.2
2017-May-20 01:00N 47°16' W 002°37'4 9.0
2017-May-20 00:30N 47°19' W 002°32'1 2.0
2017-May-20 00:00N 47°18' W 002°31'4 7.3
2017-May-19 23:30N 47°16' W 002°36'4 8.6
2017-May-19 23:00N 47°14' W 002°41'5 9.7
2017-May-19 22:30N 47°11' W 002°47'5 0.2
2017-May-18 21:00N 47°07' W 002°44'4 8.5
2017-May-18 20:30N 47°11' W 002°40'5 9.8
2017-May-18 20:00N 47°15' W 002°37'5 9.2
2017-May-18 19:30N 47°19' W 002°32'1 0.1
2017-May-18 00:28N 47°18' W 002°31'0 0.0
2017-May-17 23:56N 47°18' W 002°31'4 6.3
2017-May-17 23:18N 47°16' W 002°36'3 9.5
2017-May-17 23:00N 47°14' W 002°38'39 2.6
2017-May-17 07:44N 46°38' W 003°02'2 3.7
2017-May-17 07:17N 46°36' W 003°02'1 3.7
2017-May-17 06:57N 46°35' W 003°01'2 3.4
2017-May-17 06:30N 46°34' W 003°00'3 3.9
2017-May-17 05:36N 46°37' W 003°01'0 3.7
2017-May-17 05:30N 46°38' W 003°01'2 3.9
2017-May-17 04:56N 46°40' W 003°01'2 3.9
2017-May-17 04:27N 46°42' W 003°02'2 3.9
2017-May-17 03:56N 46°44' W 003°02'4 7.9
2017-May-17 03:26N 46°47' W 002°59'4 9.1
2017-May-17 03:00N 46°51' W 002°57'5 9.0
2017-May-17 02:29N 46°55' W 002°53'4 9.2
2017-May-17 02:00N 46°59' W 002°50'5 9.4
2017-May-17 01:30N 47°03' W 002°47'5 9.4
2017-May-17 01:00N 47°07' W 002°44'5 9.6
2017-May-17 00:31N 47°11' W 002°40'510.0
2017-May-17 00:00N 47°16' W 002°37'5 9.1
2017-May-16 23:30N 47°19' W 002°32'1 2.3
2017-May-16 22:59N 47°18' W 002°31'1 3.0
2017-May-16 22:30N 47°18' W 002°33'4 8.9
2017-May-16 22:00N 47°15' W 002°36'5 9.1
2017-May-16 21:30N 47°11' W 002°39'5 9.0
2017-May-16 21:00N 47°07' W 002°42'6 9.3
2017-May-16 20:20N 47°01' W 002°46'3 9.4
2017-May-16 20:00N 46°58' W 002°49'6 9.4
2017-May-16 19:20N 46°53' W 002°53'3 9.4
2017-May-16 18:59N 46°50' W 002°55'7 9.2
2017-May-16 18:16N 46°44' W 002°60'3 7.3
2017-May-16 17:54N 46°42' W 003°01'3 3.8
2017-May-16 17:02N 46°38' W 003°01'0 3.8
2017-May-16 16:58N 46°38' W 003°01'2 3.9
2017-May-16 16:23N 46°36' W 003°00'3 2.0
2017-May-16 15:00N 46°38' W 003°02'2 0.8
2017-May-16 12:48N 46°37' W 003°02'6 0.7
2017-May-16 03:45N 46°43' W 003°02'1 3.6
2017-May-16 03:30N 46°42' W 003°01'1 0.7
2017-May-16 01:57N 46°43' W 003°02'6 4.0
2017-May-16 00:21N 46°37' W 002°59'2 3.9
2017-May-15 23:58N 46°36' W 002°58'3 4.1
2017-May-15 23:10N 46°33' W 002°56'1 4.2
2017-May-15 22:58N 46°33' W 002°55'7 3.8
2017-May-15 21:12N 46°39' W 003°00'1 4.0
2017-May-15 21:00N 46°39' W 003°01'4 4.2
2017-May-15 20:02N 46°43' W 003°04'8 3.5
2017-May-15 17:53N 46°35' W 003°01'5 3.8
2017-May-15 16:30N 46°30' W 003°01'2 3.6
2017-May-15 16:00N 46°28' W 002°60'2 3.8
2017-May-15 15:29N 46°27' W 002°58'3 1.9
2017-May-15 13:54N 46°27' W 003°02'19 3.1
2017-May-15 07:53N 46°44' W 002°50'2 4.0
2017-May-15 07:29N 46°45' W 002°51'2 5.0
2017-May-15 07:00N 46°47' W 002°49'5 9.6
2017-May-15 06:30N 46°52' W 002°47'5 9.5
2017-May-15 06:00N 46°56' W 002°45'5 9.4
2017-May-15 05:31N 47°01' W 002°43'5 9.4
2017-May-15 05:01N 47°05' W 002°41'  

Dump ship's entire track history